createdAt,value
2019-04-07T00:00:59.783Z,75.70
2019-04-07T00:03:32.318Z,75.80
2019-04-07T00:06:05.344Z,75.80
2019-04-07T00:08:38.687Z,75.60
2019-04-07T00:11:11.930Z,75.10
2019-04-07T00:13:44.777Z,74.80
2019-04-07T00:16:18.501Z,74.70
2019-04-07T00:18:52.078Z,75.10
2019-04-07T00:21:25.218Z,75.50
2019-04-07T00:24:01.480Z,76.00
2019-04-07T00:26:33.765Z,75.60
2019-04-07T00:29:06.597Z,75.40
2019-04-07T00:31:40.198Z,75.60
2019-04-07T00:34:13.377Z,75.40
2019-04-07T00:36:46.860Z,75.50
2019-04-07T00:39:20.855Z,75.90
2019-04-07T00:41:53.617Z,75.90
2019-04-07T00:44:26.597Z,76.10
2019-04-07T00:46:59.793Z,77.80
2019-04-07T00:49:34.761Z,78.10
2019-04-07T00:52:08.407Z,78.20
2019-04-07T00:54:42.391Z,76.80
2019-04-07T00:57:15.017Z,76.80
2019-04-07T00:59:48.836Z,76.90
2019-04-07T01:02:22.497Z,76.80
2019-04-07T01:04:56.141Z,77.00
2019-04-07T01:07:29.955Z,77.40
2019-04-07T01:10:02.931Z,76.90
2019-04-07T01:12:35.860Z,76.60
2019-04-07T01:15:08.703Z,76.70
2019-04-07T01:17:42.366Z,76.90
2019-04-07T01:20:15.155Z,77.40
2019-04-07T01:22:48.597Z,77.50
2019-04-07T01:25:21.483Z,77.80
2019-04-07T01:27:54.440Z,77.10
2019-04-07T01:30:28.259Z,77.40
2019-04-07T01:33:00.978Z,77.40
2019-04-07T01:35:44.496Z,77.30
2019-04-07T01:38:08.237Z,77.30
2019-04-07T01:40:42.773Z,77.30
2019-04-07T01:43:26.607Z,77.20
2019-04-07T01:46:32.857Z,77.20
2019-04-07T01:49:36.378Z,77.20
2019-04-07T01:52:21.089Z,77.00
2019-04-07T01:55:15.415Z,77.20
2019-04-07T01:58:07.222Z,77.00
2019-04-07T02:01:05.392Z,77.20
2019-04-07T02:03:55.301Z,77.40
2019-04-07T02:06:36.509Z,77.10
2019-04-07T02:09:23.650Z,76.80
2019-04-07T02:12:15.783Z,76.40
2019-04-07T02:15:09.721Z,76.20
2019-04-07T02:18:01.357Z,76.20
2019-04-07T02:21:07.479Z,76.40
2019-04-07T02:23:55.968Z,76.60
2019-04-07T02:26:34.657Z,76.60
2019-04-07T02:29:31.557Z,76.60
2019-04-07T02:32:25.812Z,77.10
2019-04-07T02:35:08.753Z,77.00
2019-04-07T02:37:50.047Z,77.60
2019-04-07T02:40:41.279Z,76.80
2019-04-07T02:43:51.489Z,78.00
2019-04-07T02:46:42.458Z,78.80
2019-04-07T02:49:21.737Z,77.50
2019-04-07T02:52:18.597Z,77.20
2019-04-07T02:55:13.116Z,77.10
2019-04-07T02:57:54.977Z,76.60
2019-04-07T03:00:41.545Z,76.90
2019-04-07T03:03:31.132Z,76.50
2019-04-07T03:06:37.641Z,76.50
2019-04-07T03:09:26.198Z,76.60
2019-04-07T03:12:33.236Z,76.70
2019-04-07T03:15:13.129Z,76.90
2019-04-07T03:18:00.762Z,77.10
2019-04-07T03:20:45.473Z,77.20
2019-04-07T03:23:44.040Z,77.30
2019-04-07T03:26:34.299Z,77.60
2019-04-07T03:29:25.508Z,77.70
2019-04-07T03:32:23.865Z,77.90
2019-04-07T03:35:13.182Z,77.60
2019-04-07T03:38:07.793Z,77.30
2019-04-07T03:41:00.256Z,77.70
2019-04-07T03:43:54.703Z,77.40
2019-04-07T03:46:57.937Z,77.40
2019-04-07T03:49:41.250Z,77.30
2019-04-07T03:52:25.019Z,78.00
2019-04-07T03:55:24.857Z,77.90
2019-04-07T03:58:16.230Z,78.10
2019-04-07T04:01:33.294Z,77.90
2019-04-07T04:04:28.689Z,77.80
2019-04-07T04:07:20.666Z,77.90
2019-04-07T04:09:46.059Z,77.90
2019-04-07T04:12:39.378Z,77.90
2019-04-07T04:15:24.946Z,77.80
2019-04-07T04:17:58.340Z,77.70
2019-04-07T04:20:30.638Z,78.00
2019-04-07T04:23:03.989Z,78.20
2019-04-07T04:25:37.365Z,78.20
2019-04-07T04:28:12.100Z,78.00
2019-04-07T04:30:45.173Z,77.80
2019-04-07T04:33:18.072Z,77.70
2019-04-07T04:35:51.684Z,77.70
2019-04-07T04:38:24.978Z,77.80
2019-04-07T04:40:58.112Z,77.80
2019-04-07T04:43:31.833Z,77.90
2019-04-07T04:46:04.631Z,78.00
2019-04-07T04:48:40.887Z,77.90
2019-04-07T04:51:13.959Z,77.90
2019-04-07T04:53:47.582Z,78.00
2019-04-07T04:56:20.563Z,78.20
2019-04-07T04:58:53.942Z,78.30
2019-04-07T05:01:26.604Z,78.50
2019-04-07T05:03:59.618Z,78.40
2019-04-07T05:06:32.098Z,77.90
2019-04-07T05:09:06.902Z,77.50
2019-04-07T05:11:40.753Z,78.30
2019-04-07T05:14:14.223Z,77.60
2019-04-07T05:16:46.757Z,77.50
2019-04-07T05:19:20.917Z,77.30
2019-04-07T05:21:54.801Z,77.60
2019-04-07T05:24:28.117Z,77.80
2019-04-07T05:27:01.157Z,78.20
2019-04-07T05:29:34.637Z,78.20
2019-04-07T05:32:07.986Z,77.40
2019-04-07T05:34:40.309Z,77.10
2019-04-07T05:37:14.092Z,77.10
2019-04-07T05:39:47.190Z,76.90
2019-04-07T05:42:20.069Z,76.80
2019-04-07T05:44:53.677Z,76.90
2019-04-07T05:47:26.723Z,77.00
2019-04-07T05:49:59.977Z,76.90
2019-04-07T05:52:38.574Z,76.70
2019-04-07T05:55:09.805Z,76.80
2019-04-07T05:57:43.156Z,76.60
2019-04-07T06:00:17.019Z,76.50
2019-04-07T06:02:50.773Z,76.60
2019-04-07T06:05:24.597Z,76.30
2019-04-07T06:08:02.695Z,76.00
2019-04-07T06:10:32.717Z,76.20
2019-04-07T06:13:05.337Z,76.20
2019-04-07T06:15:39.216Z,75.80
2019-04-07T06:18:12.613Z,75.70
2019-04-07T06:20:46.678Z,75.60
2019-04-07T06:23:23.028Z,75.30
2019-04-07T06:25:57.321Z,75.50
2019-04-07T06:28:29.235Z,75.40
2019-04-07T06:31:03.107Z,75.30
2019-04-07T06:33:38.082Z,75.40
2019-04-07T06:36:10.356Z,75.70
2019-04-07T06:38:49.284Z,75.90
2019-04-07T06:41:17.442Z,76.60
2019-04-07T06:43:51.761Z,76.70
2019-04-07T06:46:45.897Z,76.60
2019-04-07T06:49:47.459Z,76.70
2019-04-07T06:52:35.481Z,76.70
2019-04-07T06:55:33.336Z,76.90
2019-04-07T06:58:40.778Z,76.30
2019-04-07T07:01:29.682Z,76.10
2019-04-07T07:04:19.438Z,75.50
2019-04-07T07:07:01.130Z,75.50
2019-04-07T07:10:02.190Z,74.90
2019-04-07T07:12:53.917Z,74.70
2019-04-07T07:15:49.313Z,74.30
2019-04-07T07:18:34.617Z,73.90
2019-04-07T07:21:39.474Z,73.80
2019-04-07T07:24:14.619Z,73.60
2019-04-07T07:26:46.246Z,73.30
2019-04-07T07:29:19.418Z,72.80
2019-04-07T07:31:58.665Z,72.30
2019-04-07T07:34:27.361Z,72.30
2019-04-07T07:37:00.098Z,72.20
2019-04-07T07:39:34.019Z,72.40
2019-04-07T07:42:09.267Z,72.30
2019-04-07T07:44:42.763Z,72.20
2019-04-07T07:47:15.297Z,72.70
2019-04-07T07:49:48.212Z,72.60
2019-04-07T07:52:21.996Z,72.60
2019-04-07T07:54:55.205Z,72.50
2019-04-07T07:57:28.379Z,71.90
2019-04-07T08:00:05.117Z,71.80
2019-04-07T08:02:35.320Z,72.10
2019-04-07T08:05:09.314Z,71.90
2019-04-07T08:07:45.691Z,71.50
2019-04-07T08:10:17.157Z,71.40
2019-04-07T08:12:49.742Z,70.10
2019-04-07T08:15:25.527Z,69.80
2019-04-07T08:17:57.388Z,68.90
2019-04-07T08:20:29.757Z,69.00
2019-04-07T08:23:02.549Z,68.80
2019-04-07T08:25:36.828Z,68.30
2019-04-07T08:28:09.681Z,67.50
2019-04-07T08:30:44.843Z,67.00
2019-04-07T08:33:17.037Z,66.60
2019-04-07T08:35:50.207Z,66.20
2019-04-07T08:38:25.889Z,66.50
2019-04-07T08:40:57.672Z,69.30
2019-04-07T08:43:30.958Z,69.00
2019-04-07T08:46:05.072Z,68.80
2019-04-07T08:48:38.801Z,68.10
2019-04-07T08:51:11.497Z,68.10
2019-04-07T08:53:45.120Z,68.30
2019-04-07T08:56:18.657Z,68.20
2019-04-07T08:58:51.122Z,68.10
2019-04-07T09:01:24.882Z,67.60
2019-04-07T09:03:58.553Z,66.30
2019-04-07T09:06:31.592Z,67.10
2019-04-07T09:09:07.962Z,65.90
2019-04-07T09:11:42.505Z,66.00
2019-04-07T09:14:17.249Z,65.20
2019-04-07T09:17:30.662Z,64.10
2019-04-07T09:20:08.463Z,64.70
2019-04-07T09:22:51.473Z,66.30
2019-04-07T09:25:42.014Z,65.90
2019-04-07T09:28:34.541Z,66.10
2019-04-07T09:31:28.360Z,66.40
2019-04-07T09:34:20.088Z,66.40
2019-04-07T09:37:18.547Z,66.40
2019-04-07T09:40:06.778Z,66.60
2019-04-07T09:42:57.458Z,65.50
2019-04-07T09:45:51.769Z,66.60
2019-04-07T09:48:48.814Z,67.20
2019-04-07T09:51:42.869Z,65.10
2019-04-07T09:54:40.949Z,64.40
2019-04-07T09:57:39.786Z,63.30
2019-04-07T10:00:34.057Z,62.50
2019-04-07T10:03:24.236Z,60.90
2019-04-07T10:06:23.978Z,59.90
2019-04-07T10:08:57.121Z,60.00
2019-04-07T10:11:49.378Z,58.80
2019-04-07T10:14:43.911Z,58.80
2019-04-07T10:17:47.777Z,58.50
2019-04-07T10:20:51.734Z,57.70
2019-04-07T10:23:34.177Z,57.00
2019-04-07T10:26:15.730Z,57.00
2019-04-07T10:29:10.969Z,56.70
2019-04-07T10:32:07.819Z,56.50
2019-04-07T10:35:05.778Z,56.00
2019-04-07T10:37:56.923Z,55.60
2019-04-07T10:40:46.861Z,55.30
2019-04-07T10:43:42.299Z,54.80
2019-04-07T10:46:33.626Z,55.40
2019-04-07T10:49:40.897Z,55.00
2019-04-07T10:52:22.179Z,55.50
2019-04-07T10:55:11.637Z,55.80
2019-04-07T10:58:18.278Z,55.60
2019-04-07T11:01:09.979Z,55.80
2019-04-07T11:04:03.909Z,56.10
2019-04-07T11:06:58.710Z,55.50
2019-04-07T11:09:48.177Z,55.00
2019-04-07T11:12:36.799Z,54.00
2019-04-07T11:15:41.990Z,54.00
2019-04-07T11:18:26.559Z,54.20
2019-04-07T11:21:22.534Z,54.40
2019-04-07T11:24:14.477Z,54.80
2019-04-07T11:27:06.796Z,54.80
2019-04-07T11:29:46.777Z,54.70
2019-04-07T11:32:53.416Z,54.60
2019-04-07T11:35:47.541Z,54.90
2019-04-07T11:38:34.228Z,54.10
2019-04-07T11:41:37.436Z,53.90
2019-04-07T11:44:31.323Z,54.30
2019-04-07T11:47:38.059Z,55.00
2019-04-07T11:50:30.950Z,54.50
2019-04-07T11:53:40.418Z,55.00
2019-04-07T11:56:21.767Z,53.80
2019-04-07T11:59:20.330Z,53.80
2019-04-07T12:02:18.493Z,54.20
2019-04-07T12:05:06.493Z,54.80
2019-04-07T12:07:58.729Z,54.70
2019-04-07T12:10:58.548Z,53.20
2019-04-07T12:13:31.818Z,53.40
2019-04-07T12:16:28.657Z,52.50
2019-04-07T12:19:14.117Z,52.40
2019-04-07T12:21:59.998Z,52.20
2019-04-07T12:25:02.012Z,52.40
2019-04-07T12:27:58.918Z,53.00
2019-04-07T12:30:51.187Z,52.70
2019-04-07T12:33:40.917Z,52.00
2019-04-07T12:36:44.197Z,51.20
2019-04-07T12:39:36.113Z,51.70
2019-04-07T12:42:42.940Z,52.20
2019-04-07T12:45:35.783Z,52.60
2019-04-07T12:48:30.034Z,51.40
2019-04-07T12:51:08.439Z,50.80
2019-04-07T12:53:53.310Z,50.90
2019-04-07T12:56:43.419Z,50.70
2019-04-07T12:59:29.998Z,50.20
2019-04-07T13:02:24.049Z,48.90
2019-04-07T13:05:16.466Z,49.00
2019-04-07T13:08:08.053Z,49.60
2019-04-07T13:10:49.678Z,48.90
2019-04-07T13:13:40.725Z,48.70
2019-04-07T13:16:23.722Z,48.40
2019-04-07T13:19:13.908Z,48.10
2019-04-07T13:22:04.177Z,47.70
2019-04-07T13:25:07.796Z,47.00
2019-04-07T13:28:15.230Z,46.20
2019-04-07T13:31:05.960Z,46.10
2019-04-07T13:34:04.182Z,45.80
2019-04-07T13:36:54.236Z,45.50
2019-04-07T13:39:54.546Z,45.00
2019-04-07T13:42:45.655Z,44.90
2019-04-07T13:45:44.304Z,45.50
2019-04-07T13:48:34.415Z,44.40
2019-04-07T13:51:22.553Z,44.70
2019-04-07T13:54:20.027Z,44.30
2019-04-07T13:57:15.521Z,45.00
2019-04-07T14:00:12.844Z,45.20
2019-04-07T14:02:58.932Z,45.80
2019-04-07T14:05:47.896Z,46.20
2019-04-07T14:08:38.664Z,46.50
2019-04-07T14:11:49.791Z,47.00
2019-04-07T14:14:42.559Z,47.30
2019-04-07T14:17:36.229Z,47.60
2019-04-07T14:20:29.237Z,47.70
2019-04-07T14:23:19.819Z,47.70
2019-04-07T14:26:03.549Z,48.00
2019-04-07T14:28:58.780Z,48.30
2019-04-07T14:31:52.438Z,48.20
2019-04-07T14:34:45.557Z,48.50
2019-04-07T14:37:51.317Z,49.30
2019-04-07T14:40:33.449Z,48.90
2019-04-07T14:43:15.791Z,49.00
2019-04-07T14:45:56.884Z,48.90
2019-04-07T14:48:41.095Z,48.80
2019-04-07T14:51:35.074Z,48.90
2019-04-07T14:54:25.415Z,48.90
2019-04-07T14:57:08.163Z,48.70
2019-04-07T14:59:56.334Z,48.60
2019-04-07T15:02:29.104Z,48.80
2019-04-07T15:05:13.721Z,48.80
2019-04-07T15:08:04.433Z,49.10
2019-04-07T15:10:47.326Z,49.40
2019-04-07T15:13:27.063Z,49.50
2019-04-07T15:16:00.555Z,49.40
2019-04-07T15:18:33.905Z,49.40
2019-04-07T15:21:06.811Z,49.50
2019-04-07T15:23:39.995Z,49.50
2019-04-07T15:26:16.337Z,49.30
2019-04-07T15:28:46.890Z,49.20
2019-04-07T15:31:20.489Z,49.40
2019-04-07T15:33:53.555Z,49.60
2019-04-07T15:36:26.438Z,49.60
2019-04-07T15:38:58.652Z,50.20
2019-04-07T15:41:32.673Z,50.00
2019-04-07T15:44:06.929Z,49.90
2019-04-07T15:46:39.645Z,50.20
2019-04-07T15:49:12.698Z,50.30
2019-04-07T15:51:45.914Z,50.40
2019-04-07T15:54:22.347Z,51.20
2019-04-07T15:56:52.821Z,50.80
2019-04-07T15:59:29.444Z,50.90
2019-04-07T16:02:01.227Z,51.20
2019-04-07T16:04:34.699Z,51.60
2019-04-07T16:07:09.090Z,51.80
2019-04-07T16:09:51.550Z,51.80
2019-04-07T16:12:16.518Z,51.90
2019-04-07T16:14:50.415Z,52.20
2019-04-07T16:17:24.168Z,52.40
2019-04-07T16:19:57.254Z,52.60
2019-04-07T16:22:29.115Z,52.50
2019-04-07T16:25:02.004Z,52.60
2019-04-07T16:27:37.599Z,52.60
2019-04-07T16:30:08.561Z,52.50
2019-04-07T16:32:41.434Z,52.80
2019-04-07T16:35:16.236Z,52.70
2019-04-07T16:37:48.147Z,52.70
2019-04-07T16:40:21.734Z,52.70
2019-04-07T16:43:09.233Z,52.80
2019-04-07T16:45:29.340Z,52.90
2019-04-07T16:48:04.529Z,53.10
2019-04-07T16:50:37.046Z,53.10
2019-04-07T16:53:09.282Z,53.40
2019-04-07T16:55:46.594Z,53.50
2019-04-07T16:58:17.914Z,53.60
2019-04-07T17:00:49.846Z,53.60
2019-04-07T17:03:23.514Z,53.70
2019-04-07T17:05:59.309Z,53.70
2019-04-07T17:08:30.634Z,53.90
2019-04-07T17:11:07.030Z,54.10
2019-04-07T17:13:41.431Z,54.20
2019-04-07T17:16:12.250Z,54.60
2019-04-07T17:18:48.590Z,54.50
2019-04-07T17:21:22.355Z,54.30
2019-04-07T17:23:55.966Z,54.30
2019-04-07T17:26:29.616Z,54.60
2019-04-07T17:29:03.225Z,54.80
2019-04-07T17:31:35.694Z,55.20
2019-04-07T17:34:10.842Z,55.70
2019-04-07T17:36:42.783Z,55.90
2019-04-07T17:39:38.394Z,56.20
2019-04-07T17:42:14.418Z,56.90
2019-04-07T17:45:24.641Z,57.30
2019-04-07T17:48:14.474Z,57.60
2019-04-07T17:51:09.729Z,57.30
2019-04-07T17:54:12.354Z,57.50
2019-04-07T17:57:04.010Z,57.20
2019-04-07T18:00:02.797Z,57.40
2019-04-07T18:02:58.934Z,57.50
2019-04-07T18:05:50.780Z,57.80
2019-04-07T18:08:45.336Z,58.10
2019-04-07T18:11:37.771Z,58.60
2019-04-07T18:14:30.053Z,58.60
2019-04-07T18:17:23.740Z,58.40
2019-04-07T18:20:14.024Z,58.40
2019-04-07T18:23:05.422Z,58.60
2019-04-07T18:25:54.674Z,58.80
2019-04-07T18:28:45.289Z,59.50
2019-04-07T18:31:36.263Z,59.70
2019-04-07T18:34:23.099Z,59.70
2019-04-07T18:37:11.622Z,59.80
2019-04-07T18:39:57.461Z,60.30
2019-04-07T18:42:52.295Z,60.40
2019-04-07T18:45:48.331Z,60.00
2019-04-07T18:48:38.916Z,60.30
2019-04-07T18:51:48.384Z,60.40
2019-04-07T18:54:36.534Z,61.10
2019-04-07T18:57:30.516Z,61.20
2019-04-07T19:00:21.894Z,61.30
2019-04-07T19:03:09.395Z,60.00
2019-04-07T19:05:47.966Z,60.30
2019-04-07T19:08:46.280Z,60.50
2019-04-07T19:11:34.096Z,60.40
2019-04-07T19:14:44.582Z,60.10
2019-04-07T19:17:34.989Z,63.50
2019-04-07T19:20:26.934Z,62.50
2019-04-07T19:23:36.353Z,63.80
2019-04-07T19:26:26.757Z,62.80
2019-04-07T19:29:21.671Z,63.30
2019-04-07T19:32:12.195Z,63.80
2019-04-07T19:35:13.050Z,63.70
2019-04-07T19:38:04.788Z,65.40
2019-04-07T19:41:00.162Z,65.10
2019-04-07T19:43:56.498Z,65.30
2019-04-07T19:46:52.596Z,65.20
2019-04-07T19:49:43.132Z,67.10
2019-04-07T19:52:36.188Z,67.40
2019-04-07T19:55:24.916Z,67.30
2019-04-07T19:58:26.359Z,68.70
2019-04-07T20:01:09.415Z,68.60
2019-04-07T20:03:59.811Z,69.20
2019-04-07T20:07:07.016Z,70.10
2019-04-07T20:10:21.516Z,69.10
2019-04-07T20:13:21.989Z,69.00
2019-04-07T20:16:19.720Z,70.60
2019-04-07T20:19:09.216Z,70.50
2019-04-07T20:22:00.362Z,70.20
2019-04-07T20:25:05.850Z,70.60
2019-04-07T20:27:44.909Z,71.30
2019-04-07T20:30:36.078Z,72.30
2019-04-07T20:33:32.383Z,72.10
2019-04-07T20:36:20.255Z,72.40
2019-04-07T20:39:00.493Z,72.30
2019-04-07T20:41:43.648Z,70.40
2019-04-07T20:44:35.232Z,70.90
2019-04-07T20:47:23.694Z,71.30
2019-04-07T20:50:14.289Z,72.40
2019-04-07T20:53:12.484Z,73.40
2019-04-07T20:56:00.386Z,72.50
2019-04-07T20:58:56.688Z,74.20
2019-04-07T21:02:02.425Z,72.80
2019-04-07T21:04:43.852Z,71.70
2019-04-07T21:07:28.961Z,72.60
2019-04-07T21:10:09.496Z,73.40
2019-04-07T21:12:57.431Z,71.20
2019-04-07T21:15:55.238Z,73.40
2019-04-07T21:19:06.863Z,73.20
2019-04-07T21:21:56.054Z,74.10
2019-04-07T21:24:45.530Z,74.40
2019-04-07T21:27:34.762Z,75.20
2019-04-07T21:30:20.915Z,75.20
2019-04-07T21:33:03.177Z,74.50
2019-04-07T21:35:42.648Z,74.30
2019-04-07T21:38:34.832Z,74.20
2019-04-07T21:41:28.873Z,73.60
2019-04-07T21:44:28.556Z,73.10
2019-04-07T21:47:26.609Z,73.20
2019-04-07T21:50:17.096Z,73.30
2019-04-07T21:53:13.037Z,73.50
2019-04-07T21:56:08.069Z,74.10
2019-04-07T21:59:03.219Z,73.10
2019-04-07T22:02:11.437Z,75.10
2019-04-07T22:04:58.711Z,76.00
2019-04-07T22:07:49.894Z,74.30
2019-04-07T22:10:23.048Z,74.00
2019-04-07T22:13:00.295Z,75.40
2019-04-07T22:15:41.468Z,74.90
2019-04-07T22:18:07.508Z,75.60
2019-04-07T22:20:39.136Z,75.00
2019-04-07T22:23:12.561Z,75.70
2019-04-07T22:25:54.294Z,75.90
2019-04-07T22:28:28.407Z,73.90
2019-04-07T22:31:01.433Z,74.80
2019-04-07T22:33:34.913Z,75.00
2019-04-07T22:36:11.235Z,75.00
2019-04-07T22:38:41.945Z,75.90
2019-04-07T22:41:15.510Z,76.60
2019-04-07T22:43:50.812Z,76.40
2019-04-07T22:46:26.087Z,75.50
2019-04-07T22:48:58.738Z,75.10
2019-04-07T22:51:30.834Z,76.80
2019-04-07T22:54:03.809Z,76.70
2019-04-07T22:56:39.339Z,76.70
2019-04-07T22:59:11.881Z,76.40
2019-04-07T23:01:45.835Z,75.10
2019-04-07T23:04:18.834Z,76.00
2019-04-07T23:06:50.674Z,76.10
2019-04-07T23:09:23.139Z,76.80
2019-04-07T23:11:56.597Z,76.10
2019-04-07T23:14:29.154Z,74.40
2019-04-07T23:17:01.649Z,74.80
2019-04-07T23:19:34.409Z,75.70
2019-04-07T23:22:08.076Z,75.50
2019-04-07T23:24:41.058Z,75.70
2019-04-07T23:27:14.543Z,76.00
2019-04-07T23:29:46.478Z,76.20
2019-04-07T23:32:19.133Z,77.30
2019-04-07T23:34:52.397Z,77.00
2019-04-07T23:37:24.714Z,76.20
2019-04-07T23:39:58.080Z,77.10
2019-04-07T23:42:30.509Z,77.10
2019-04-07T23:45:03.187Z,77.10
2019-04-07T23:47:35.440Z,76.40
2019-04-07T23:50:09.151Z,76.80
2019-04-07T23:52:41.714Z,78.90
2019-04-07T23:55:14.951Z,79.20
2019-04-07T23:57:48.666Z,79.70
